sensor_id;sensor_type;location;lat;lon;timestamp;pressure;altitude;pressure_sealevel;temperature;humidity
8292;BME280;4184;42.724;23.308;2022-09-17T00:01:17;94578.13;;;19.27;68.11
8292;BME280;4184;42.724;23.308;2022-09-17T00:03:49;94567.66;;;19.27;68.08
8292;BME280;4184;42.724;23.308;2022-09-17T00:06:18;94581.53;;;19.28;68.10
8292;BME280;4184;42.724;23.308;2022-09-17T00:08:47;94564.00;;;19.28;67.97
8292;BME280;4184;42.724;23.308;2022-09-17T00:11:17;94572.47;;;19.30;67.87
8292;BME280;4184;42.724;23.308;2022-09-17T00:13:46;94550.31;;;19.26;68.15
8292;BME280;4184;42.724;23.308;2022-09-17T00:16:22;94543.47;;;19.25;68.27
8292;BME280;4184;42.724;23.308;2022-09-17T00:18:50;94545.06;;;19.26;68.21
8292;BME280;4184;42.724;23.308;2022-09-17T00:21:18;94534.59;;;19.26;68.24
8292;BME280;4184;42.724;23.308;2022-09-17T00:23:47;94537.81;;;19.28;68.01
8292;BME280;4184;42.724;23.308;2022-09-17T00:26:15;94543.84;;;19.29;67.87
8292;BME280;4184;42.724;23.308;2022-09-17T00:28:42;94545.25;;;19.31;68.03
8292;BME280;4184;42.724;23.308;2022-09-17T00:31:13;94545.88;;;19.33;67.79
8292;BME280;4184;42.724;23.308;2022-09-17T00:33:41;94543.25;;;19.33;67.75
8292;BME280;4184;42.724;23.308;2022-09-17T00:36:08;94541.44;;;19.34;68.07
8292;BME280;4184;42.724;23.308;2022-09-17T00:38:36;94552.72;;;19.34;67.88
8292;BME280;4184;42.724;23.308;2022-09-17T00:41:06;94557.53;;;19.37;67.84
8292;BME280;4184;42.724;23.308;2022-09-17T00:43:38;94547.06;;;19.37;67.69
8292;BME280;4184;42.724;23.308;2022-09-17T00:46:14;94554.69;;;19.39;67.62
8292;BME280;4184;42.724;23.308;2022-09-17T00:48:45;94551.06;;;19.40;67.55
8292;BME280;4184;42.724;23.308;2022-09-17T00:51:14;94560.75;;;19.39;67.52
8292;BME280;4184;42.724;23.308;2022-09-17T00:53:44;94581.72;;;19.39;67.61
8292;BME280;4184;42.724;23.308;2022-09-17T00:56:17;94588.97;;;19.37;67.97
8292;BME280;4184;42.724;23.308;2022-09-17T00:58:46;94576.09;;;19.36;67.87
8292;BME280;4184;42.724;23.308;2022-09-17T01:01:14;94578.13;;;19.34;67.78
8292;BME280;4184;42.724;23.308;2022-09-17T01:03:41;94578.91;;;19.34;67.85
8292;BME280;4184;42.724;23.308;2022-09-17T01:06:14;94561.59;;;19.33;68.12
8292;BME280;4184;42.724;23.308;2022-09-17T01:09:04;94553.09;;;19.31;67.88
8292;BME280;4184;42.724;23.308;2022-09-17T01:12:05;94549.09;;;19.29;67.90
8292;BME280;4184;42.724;23.308;2022-09-17T01:14:45;94546.69;;;19.27;68.06
8292;BME280;4184;42.724;23.308;2022-09-17T01:17:19;94548.72;;;19.25;68.20
8292;BME280;4184;42.724;23.308;2022-09-17T01:23:03;94571.69;;;19.23;68.06
8292;BME280;4184;42.724;23.308;2022-09-17T01:25:45;94569.06;;;19.23;68.04
8292;BME280;4184;42.724;23.308;2022-09-17T01:28:32;94550.13;;;19.21;68.12
8292;BME280;4184;42.724;23.308;2022-09-17T01:31:07;94538.66;;;19.22;67.91
8292;BME280;4184;42.724;23.308;2022-09-17T01:33:43;94534.22;;;19.22;68.07
8292;BME280;4184;42.724;23.308;2022-09-17T01:36:21;94519.72;;;19.20;68.16
8292;BME280;4184;42.724;23.308;2022-09-17T01:38:57;94520.13;;;19.17;68.19
8292;BME280;4184;42.724;23.308;2022-09-17T01:41:35;94512.47;;;19.15;68.34
8292;BME280;4184;42.724;23.308;2022-09-17T01:44:12;94527.78;;;19.12;68.46
8292;BME280;4184;42.724;23.308;2022-09-17T01:46:46;94514.91;;;19.10;68.53
8292;BME280;4184;42.724;23.308;2022-09-17T01:49:16;94544.72;;;19.09;68.17
8292;BME280;4184;42.724;23.308;2022-09-17T01:51:47;94574.19;;;19.05;68.82
8292;BME280;4184;42.724;23.308;2022-09-17T01:54:19;94560.50;;;19.03;68.79
8292;BME280;4184;42.724;23.308;2022-09-17T01:56:53;94564.31;;;19.00;68.67
8292;BME280;4184;42.724;23.308;2022-09-17T01:59:25;94553.84;;;19.00;68.68
8292;BME280;4184;42.724;23.308;2022-09-17T02:01:59;94529.69;;;18.98;68.67
8292;BME280;4184;42.724;23.308;2022-09-17T02:04:30;94507.50;;;19.01;68.90
8292;BME280;4184;42.724;23.308;2022-09-17T02:07:03;94496.81;;;18.96;69.14
8292;BME280;4184;42.724;23.308;2022-09-17T02:09:37;94482.38;;;18.86;69.32
8292;BME280;4184;42.724;23.308;2022-09-17T02:12:11;94469.50;;;18.78;69.93
8292;BME280;4184;42.724;23.308;2022-09-17T02:14:45;94448.19;;;18.68;69.98
8292;BME280;4184;42.724;23.308;2022-09-17T02:17:21;94416.38;;;18.58;70.15
8292;BME280;4184;42.724;23.308;2022-09-17T02:19:52;94441.75;;;18.57;70.15
8292;BME280;4184;42.724;23.308;2022-09-17T02:22:24;94441.53;;;18.59;69.99
8292;BME280;4184;42.724;23.308;2022-09-17T02:25:00;94436.91;;;18.61;69.84
8292;BME280;4184;42.724;23.308;2022-09-17T02:27:36;94437.34;;;18.65;70.08
8292;BME280;4184;42.724;23.308;2022-09-17T02:30:08;94439.94;;;18.71;69.83
8292;BME280;4184;42.724;23.308;2022-09-17T02:32:38;94454.19;;;18.75;69.84
8292;BME280;4184;42.724;23.308;2022-09-17T02:35:06;94492.03;;;18.79;69.51
8292;BME280;4184;42.724;23.308;2022-09-17T02:37:34;94480.38;;;18.82;69.59
8292;BME280;4184;42.724;23.308;2022-09-17T02:40:02;94453.19;;;18.76;69.48
8292;BME280;4184;42.724;23.308;2022-09-17T02:42:34;94421.19;;;18.74;69.52
8292;BME280;4184;42.724;23.308;2022-09-17T02:45:14;94438.31;;;18.70;69.88
8292;BME280;4184;42.724;23.308;2022-09-17T02:48:05;94431.47;;;18.69;69.68
8292;BME280;4184;42.724;23.308;2022-09-17T02:50:55;94404.88;;;18.72;69.61
8292;BME280;4184;42.724;23.308;2022-09-17T02:53:35;94404.66;;;18.74;69.68
8292;BME280;4184;42.724;23.308;2022-09-17T02:56:12;94411.50;;;18.75;69.46
8292;BME280;4184;42.724;23.308;2022-09-17T02:58:48;94400.22;;;18.74;69.62
8292;BME280;4184;42.724;23.308;2022-09-17T03:01:24;94386.13;;;18.75;69.61
8292;BME280;4184;42.724;23.308;2022-09-17T03:03:58;94398.41;;;18.75;69.41
8292;BME280;4184;42.724;23.308;2022-09-17T03:06:28;94410.69;;;18.74;69.45
8292;BME280;4184;42.724;23.308;2022-09-17T03:08:55;94418.34;;;18.76;69.48
8292;BME280;4184;42.724;23.308;2022-09-17T03:11:23;94409.28;;;18.78;69.34
8292;BME280;4184;42.724;23.308;2022-09-17T03:13:51;94417.53;;;18.82;69.26
8292;BME280;4184;42.724;23.308;2022-09-17T03:16:18;94418.34;;;18.82;68.99
8292;BME280;4184;42.724;23.308;2022-09-17T03:18:46;94415.28;;;18.85;69.05
8292;BME280;4184;42.724;23.308;2022-09-17T03:21:15;94418.50;;;18.87;69.02
8292;BME280;4184;42.724;23.308;2022-09-17T03:23:42;94390.50;;;18.88;69.11
8292;BME280;4184;42.724;23.308;2022-09-17T03:26:10;94375.59;;;18.88;68.63
8292;BME280;4184;42.724;23.308;2022-09-17T03:28:37;94368.75;;;18.87;68.95
8292;BME280;4184;42.724;23.308;2022-09-17T03:31:05;94361.09;;;18.86;68.98
8292;BME280;4184;42.724;23.308;2022-09-17T03:33:33;94361.53;;;18.83;69.02
8292;BME280;4184;42.724;23.308;2022-09-17T03:36:00;94354.28;;;18.78;69.21
8292;BME280;4184;42.724;23.308;2022-09-17T03:38:29;94357.91;;;18.77;69.33
8292;BME280;4184;42.724;23.308;2022-09-17T03:41:00;94359.53;;;18.78;69.18
8292;BME280;4184;42.724;23.308;2022-09-17T03:43:28;94377.84;;;18.78;69.21
8292;BME280;4184;42.724;23.308;2022-09-17T03:45:56;94387.31;;;18.79;69.01
8292;BME280;4184;42.724;23.308;2022-09-17T03:48:23;94381.06;;;18.80;69.18
8292;BME280;4184;42.724;23.308;2022-09-17T03:50:51;94369.38;;;18.83;68.95
8292;BME280;4184;42.724;23.308;2022-09-17T03:53:18;94361.31;;;18.84;69.12
8292;BME280;4184;42.724;23.308;2022-09-17T03:55:47;94356.88;;;18.85;69.22
8292;BME280;4184;42.724;23.308;2022-09-17T03:58:15;94382.06;;;18.86;69.16
8292;BME280;4184;42.724;23.308;2022-09-17T04:00:42;94394.94;;;18.87;69.04
8292;BME280;4184;42.724;23.308;2022-09-17T04:03:10;94389.69;;;18.87;69.04
8292;BME280;4184;42.724;23.308;2022-09-17T04:05:38;94398.34;;;18.88;68.76
8292;BME280;4184;42.724;23.308;2022-09-17T04:08:05;94394.72;;;18.89;69.39
8292;BME280;4184;42.724;23.308;2022-09-17T04:10:33;94394.50;;;18.90;69.07
8292;BME280;4184;42.724;23.308;2022-09-17T04:13:02;94402.16;;;18.92;69.24
8292;BME280;4184;42.724;23.308;2022-09-17T04:15:29;94420.28;;;18.93;68.95
8292;BME280;4184;42.724;23.308;2022-09-17T04:17:57;94439.19;;;18.96;69.24
8292;BME280;4184;42.724;23.308;2022-09-17T04:20:25;94443.44;;;18.97;68.92
8292;BME280;4184;42.724;23.308;2022-09-17T04:22:53;94464.19;;;18.98;69.11
8292;BME280;4184;42.724;23.308;2022-09-17T04:25:21;94465.00;;;18.99;68.83
8292;BME280;4184;42.724;23.308;2022-09-17T04:27:49;94463.78;;;18.94;68.87
8292;BME280;4184;42.724;23.308;2022-09-17T04:30:18;94479.50;;;18.94;69.09
8292;BME280;4184;42.724;23.308;2022-09-17T04:32:45;94483.13;;;18.93;69.14
8292;BME280;4184;42.724;23.308;2022-09-17T04:35:13;94490.41;;;18.91;69.20
8292;BME280;4184;42.724;23.308;2022-09-17T04:37:41;94506.72;;;18.93;68.82
8292;BME280;4184;42.724;23.308;2022-09-17T04:40:09;94521.41;;;18.94;69.19
8292;BME280;4184;42.724;23.308;2022-09-17T04:42:37;94521.41;;;18.94;68.95
8292;BME280;4184;42.724;23.308;2022-09-17T04:45:05;94530.28;;;18.93;69.21
8292;BME280;4184;42.724;23.308;2022-09-17T04:47:36;94534.91;;;18.91;69.18
8292;BME280;4184;42.724;23.308;2022-09-17T04:50:05;94531.13;;;18.87;69.36
8292;BME280;4184;42.724;23.308;2022-09-17T04:52:32;94543.63;;;18.85;69.74
8292;BME280;4184;42.724;23.308;2022-09-17T04:55:00;94551.25;;;18.87;69.38
8292;BME280;4184;42.724;23.308;2022-09-17T04:57:27;94561.53;;;18.88;69.32
8292;BME280;4184;42.724;23.308;2022-09-17T04:59:55;94561.72;;;18.93;69.26
8292;BME280;4184;42.724;23.308;2022-09-17T05:02:22;94562.91;;;18.98;69.14
8292;BME280;4184;42.724;23.308;2022-09-17T05:04:51;94564.13;;;19.02;68.65
8292;BME280;4184;42.724;23.308;2022-09-17T05:07:19;94544.34;;;19.06;68.76
8292;BME280;4184;42.724;23.308;2022-09-17T05:09:46;94533.66;;;19.07;68.42
8292;BME280;4184;42.724;23.308;2022-09-17T05:12:14;94522.56;;;19.12;68.37
8292;BME280;4184;42.724;23.308;2022-09-17T05:14:41;94521.75;;;19.18;68.09
8292;BME280;4184;42.724;23.308;2022-09-17T05:17:08;94530.56;;;19.23;68.10
8292;BME280;4184;42.724;23.308;2022-09-17T05:19:36;94528.72;;;19.31;68.09
8292;BME280;4184;42.724;23.308;2022-09-17T05:22:05;94524.09;;;19.33;68.03
8292;BME280;4184;42.724;23.308;2022-09-17T05:24:32;94512.38;;;19.35;67.77
8292;BME280;4184;42.724;23.308;2022-09-17T05:27:04;94510.78;;;19.34;67.99
8292;BME280;4184;42.724;23.308;2022-09-17T05:29:32;94500.31;;;19.34;68.41
8292;BME280;4184;42.724;23.308;2022-09-17T05:31:59;94497.88;;;19.33;68.75
8292;BME280;4184;42.724;23.308;2022-09-17T05:34:29;94502.31;;;19.32;69.00
8292;BME280;4184;42.724;23.308;2022-09-17T05:36:56;94505.53;;;19.34;68.90
8292;BME280;4184;42.724;23.308;2022-09-17T05:39:25;94518.81;;;19.39;68.98
8292;BME280;4184;42.724;23.308;2022-09-17T05:41:54;94523.22;;;19.45;68.68
8292;BME280;4184;42.724;23.308;2022-09-17T05:44:21;94510.69;;;19.47;68.33
8292;BME280;4184;42.724;23.308;2022-09-17T05:46:52;94525.00;;;19.51;68.26
8292;BME280;4184;42.724;23.308;2022-09-17T05:49:20;94515.09;;;19.53;68.07
8292;BME280;4184;42.724;23.308;2022-09-17T05:51:49;94522.00;;;19.55;68.27
8292;BME280;4184;42.724;23.308;2022-09-17T05:54:17;94512.91;;;19.57;68.24
8292;BME280;4184;42.724;23.308;2022-09-17T05:56:46;94508.03;;;19.61;68.19
8292;BME280;4184;42.724;23.308;2022-09-17T05:59:13;94511.44;;;19.61;68.09
8292;BME280;4184;42.724;23.308;2022-09-17T06:01:41;94514.88;;;19.62;67.96
8292;BME280;4184;42.724;23.308;2022-09-17T06:04:09;94521.56;;;19.58;68.25
8292;BME280;4184;42.724;23.308;2022-09-17T06:06:36;94518.34;;;19.56;68.13
8292;BME280;4184;42.724;23.308;2022-09-17T06:09:04;94534.09;;;19.56;68.28
8292;BME280;4184;42.724;23.308;2022-09-17T06:11:32;94540.94;;;19.57;68.26
8292;BME280;4184;42.724;23.308;2022-09-17T06:14:01;94544.56;;;19.56;68.17
8292;BME280;4184;42.724;23.308;2022-09-17T06:16:28;94553.84;;;19.51;68.54
8292;BME280;4184;42.724;23.308;2022-09-17T06:18:56;94568.19;;;19.49;68.63
8292;BME280;4184;42.724;23.308;2022-09-17T06:21:23;94570.00;;;19.48;69.10
8292;BME280;4184;42.724;23.308;2022-09-17T06:23:51;94569.78;;;19.50;68.84
8292;BME280;4184;42.724;23.308;2022-09-17T06:26:19;94578.03;;;19.53;68.91
8292;BME280;4184;42.724;23.308;2022-09-17T06:28:46;94596.19;;;19.55;68.73
8292;BME280;4184;42.724;23.308;2022-09-17T06:31:15;94603.25;;;19.55;68.85
8292;BME280;4184;42.724;23.308;2022-09-17T06:33:42;94587.31;;;19.56;68.87
8292;BME280;4184;42.724;23.308;2022-09-17T06:36:11;94594.59;;;19.54;68.60
8292;BME280;4184;42.724;23.308;2022-09-17T06:38:38;94601.63;;;19.53;68.69
8292;BME280;4184;42.724;23.308;2022-09-17T06:41:06;94607.06;;;19.52;68.54
8292;BME280;4184;42.724;23.308;2022-09-17T06:43:34;94586.91;;;19.52;68.93
8292;BME280;4184;42.724;23.308;2022-09-17T06:46:03;94583.28;;;19.53;68.65
8292;BME280;4184;42.724;23.308;2022-09-17T06:48:36;94589.13;;;19.56;68.52
8292;BME280;4184;42.724;23.308;2022-09-17T06:51:06;94567.16;;;19.57;68.96
8292;BME280;4184;42.724;23.308;2022-09-17T06:53:34;94563.72;;;19.56;68.80
8292;BME280;4184;42.724;23.308;2022-09-17T06:56:03;94562.91;;;19.56;68.97
8292;BME280;4184;42.724;23.308;2022-09-17T06:58:31;94565.13;;;19.59;68.76
8292;BME280;4184;42.724;23.308;2022-09-17T07:00:59;94566.31;;;19.63;68.44
8292;BME280;4184;42.724;23.308;2022-09-17T07:03:27;94557.41;;;19.64;68.31
8292;BME280;4184;42.724;23.308;2022-09-17T07:05:57;94544.94;;;19.66;68.43
8292;BME280;4184;42.724;23.308;2022-09-17T07:08:24;94520.09;;;19.68;68.45
8292;BME280;4184;42.724;23.308;2022-09-17T07:10:54;94513.41;;;19.72;68.26
8292;BME280;4184;42.724;23.308;2022-09-17T07:13:22;94500.03;;;19.80;67.98
8292;BME280;4184;42.724;23.308;2022-09-17T07:15:54;94499.72;;;19.95;67.47
8292;BME280;4184;42.724;23.308;2022-09-17T07:18:23;94512.31;;;20.11;67.29
8292;BME280;4184;42.724;23.308;2022-09-17T07:20:54;94489.97;;;20.27;67.14
8292;BME280;4184;42.724;23.308;2022-09-17T07:23:24;94483.00;;;20.39;66.90
8292;BME280;4184;42.724;23.308;2022-09-17T07:25:53;94458.31;;;20.47;66.85
8292;BME280;4184;42.724;23.308;2022-09-17T07:28:23;94486.91;;;20.55;66.48
8292;BME280;4184;42.724;23.308;2022-09-17T07:30:51;94507.81;;;20.68;66.52
8292;BME280;4184;42.724;23.308;2022-09-17T07:33:21;94520.06;;;20.93;66.05
8292;BME280;4184;42.724;23.308;2022-09-17T07:35:53;94502.44;;;21.12;65.58
8292;BME280;4184;42.724;23.308;2022-09-17T07:38:23;94490.28;;;21.17;65.36
8292;BME280;4184;42.724;23.308;2022-09-17T07:40:55;94491.66;;;21.38;65.08
8292;BME280;4184;42.724;23.308;2022-09-17T07:43:24;94492.69;;;22.56;62.73
8292;BME280;4184;42.724;23.308;2022-09-17T07:45:52;94476.88;;;24.21;59.05
8292;BME280;4184;42.724;23.308;2022-09-17T07:48:24;94473.91;;;25.12;56.58
8292;BME280;4184;42.724;23.308;2022-09-17T07:50:51;94459.94;;;25.16;55.89
8292;BME280;4184;42.724;23.308;2022-09-17T07:53:19;94457.25;;;25.11;56.16
8292;BME280;4184;42.724;23.308;2022-09-17T07:55:52;94465.31;;;24.83;56.76
8292;BME280;4184;42.724;23.308;2022-09-17T07:58:20;94468.50;;;24.63;56.91
8292;BME280;4184;42.724;23.308;2022-09-17T08:00:47;94468.72;;;24.78;57.02
8292;BME280;4184;42.724;23.308;2022-09-17T08:03:16;94471.56;;;25.37;55.69
8292;BME280;4184;42.724;23.308;2022-09-17T08:05:43;94454.63;;;25.87;54.40
8292;BME280;4184;42.724;23.308;2022-09-17T08:08:11;94451.38;;;26.49;53.16
8292;BME280;4184;42.724;23.308;2022-09-17T08:10:38;94453.75;;;26.98;52.10
8292;BME280;4184;42.724;23.308;2022-09-17T08:13:07;94445.75;;;27.61;50.50
8292;BME280;4184;42.724;23.308;2022-09-17T08:15:35;94441.81;;;27.78;50.44
8292;BME280;4184;42.724;23.308;2022-09-17T08:18:02;94440.22;;;27.72;49.88
8292;BME280;4184;42.724;23.308;2022-09-17T08:20:30;94441.22;;;27.51;50.53
8292;BME280;4184;42.724;23.308;2022-09-17T08:22:58;94435.84;;;27.31;50.68
8292;BME280;4184;42.724;23.308;2022-09-17T08:25:26;94439.56;;;27.30;50.41
8292;BME280;4184;42.724;23.308;2022-09-17T08:27:54;94437.50;;;27.52;50.16
8292;BME280;4184;42.724;23.308;2022-09-17T08:30:23;94438.63;;;27.97;49.29
8292;BME280;4184;42.724;23.308;2022-09-17T08:32:53;94437.03;;;28.52;47.84
8292;BME280;4184;42.724;23.308;2022-09-17T08:35:21;94434.88;;;28.64;47.95
8292;BME280;4184;42.724;23.308;2022-09-17T08:37:53;94437.03;;;28.36;48.14
8292;BME280;4184;42.724;23.308;2022-09-17T08:40:21;94433.31;;;27.97;48.66
8292;BME280;4184;42.724;23.308;2022-09-17T08:42:53;94436.44;;;27.53;49.17
8292;BME280;4184;42.724;23.308;2022-09-17T08:45:26;94431.28;;;27.11;50.09
8292;BME280;4184;42.724;23.308;2022-09-17T08:47:58;94429.78;;;26.73;50.95
8292;BME280;4184;42.724;23.308;2022-09-17T08:50:33;94426.28;;;26.25;51.78
8292;BME280;4184;42.724;23.308;2022-09-17T08:53:31;94432.84;;;25.85;52.47
8292;BME280;4184;42.724;23.308;2022-09-17T08:56:07;94437.91;;;25.60;53.05
8292;BME280;4184;42.724;23.308;2022-09-17T08:58:42;94447.19;;;25.35;53.69
8292;BME280;4184;42.724;23.308;2022-09-17T09:01:25;94438.47;;;25.13;53.85
8292;BME280;4184;42.724;23.308;2022-09-17T09:07:03;94439.28;;;24.70;54.74
8292;BME280;4184;42.724;23.308;2022-09-17T09:09:35;94432.88;;;24.49;55.29
8292;BME280;4184;42.724;23.308;2022-09-17T09:12:16;94440.50;;;24.28;55.70
8292;BME280;4184;42.724;23.308;2022-09-17T09:14:49;94444.38;;;24.04;56.21
8292;BME280;4184;42.724;23.308;2022-09-17T09:17:22;94449.72;;;23.76;57.05
8292;BME280;4184;42.724;23.308;2022-09-17T09:19:53;94463.94;;;23.58;57.47
8292;BME280;4184;42.724;23.308;2022-09-17T09:22:45;94479.78;;;23.46;57.38
8292;BME280;4184;42.724;23.308;2022-09-17T09:25:19;94468.81;;;23.37;57.97
8292;BME280;4184;42.724;23.308;2022-09-17T09:28:00;94477.88;;;23.30;57.76
8292;BME280;4184;42.724;23.308;2022-09-17T09:30:37;94489.63;;;23.22;58.49
8292;BME280;4184;42.724;23.308;2022-09-17T09:33:12;94497.00;;;23.08;58.78
8292;BME280;4184;42.724;23.308;2022-09-17T09:35:41;94502.03;;;22.98;58.87
8292;BME280;4184;42.724;23.308;2022-09-17T09:38:18;94517.66;;;22.88;59.36
8292;BME280;4184;42.724;23.308;2022-09-17T09:40:53;94523.25;;;22.80;59.57
8292;BME280;4184;42.724;23.308;2022-09-17T09:43:23;94519.13;;;22.72;60.18
8292;BME280;4184;42.724;23.308;2022-09-17T09:46:14;94521.75;;;22.61;60.27
8292;BME280;4184;42.724;23.308;2022-09-17T09:48:56;94532.53;;;22.47;61.03
8292;BME280;4184;42.724;23.308;2022-09-17T09:51:35;94542.38;;;22.40;61.21
8292;BME280;4184;42.724;23.308;2022-09-17T09:54:17;94541.66;;;22.33;61.44
8292;BME280;4184;42.724;23.308;2022-09-17T09:56:54;94551.53;;;22.26;61.74
8292;BME280;4184;42.724;23.308;2022-09-17T09:59:22;94548.44;;;22.17;62.16
8292;BME280;4184;42.724;23.308;2022-09-17T10:01:51;94519.22;;;22.07;62.35
8292;BME280;4184;42.724;23.308;2022-09-17T10:04:22;94497.06;;;21.97;62.46
8292;BME280;4184;42.724;23.308;2022-09-17T10:06:52;94493.41;;;21.86;62.85
8292;BME280;4184;42.724;23.308;2022-09-17T10:09:21;94472.88;;;21.76;63.26
8292;BME280;4184;42.724;23.308;2022-09-17T10:12:13;94449.97;;;21.65;63.34
8292;BME280;4184;42.724;23.308;2022-09-17T10:14:42;94428.25;;;21.58;63.51
8292;BME280;4184;42.724;23.308;2022-09-17T10:17:19;94415.84;;;21.47;64.08
8292;BME280;4184;42.724;23.308;2022-09-17T10:20:14;94405.56;;;21.34;64.61
8292;BME280;4184;42.724;23.308;2022-09-17T10:22:43;94404.03;;;21.26;64.73
8292;BME280;4184;42.724;23.308;2022-09-17T10:25:27;94389.22;;;21.13;65.12
8292;BME280;4184;42.724;23.308;2022-09-17T10:27:56;94389.75;;;21.03;65.46
8292;BME280;4184;42.724;23.308;2022-09-17T10:30:26;94402.63;;;20.93;65.90
8292;BME280;4184;42.724;23.308;2022-09-17T10:33:18;94398.50;;;20.86;66.20
8292;BME280;4184;42.724;23.308;2022-09-17T10:36:00;94422.72;;;20.88;66.20
8292;BME280;4184;42.724;23.308;2022-09-17T10:38:30;94413.81;;;20.89;66.25
8292;BME280;4184;42.724;23.308;2022-09-17T10:41:18;94421.91;;;20.87;66.32
8292;BME280;4184;42.724;23.308;2022-09-17T10:43:48;94418.03;;;20.90;66.30
8292;BME280;4184;42.724;23.308;2022-09-17T10:46:18;94425.47;;;20.93;66.19
8292;BME280;4184;42.724;23.308;2022-09-17T10:48:57;94424.16;;;21.02;66.14
8292;BME280;4184;42.724;23.308;2022-09-17T10:51:33;94401.78;;;21.11;65.71
8292;BME280;4184;42.724;23.308;2022-09-17T10:54:18;94384.97;;;21.12;65.69
8292;BME280;4184;42.724;23.308;2022-09-17T10:56:53;94393.22;;;21.16;65.60
8292;BME280;4184;42.724;23.308;2022-09-17T10:59:36;94388.34;;;21.19;65.48
8292;BME280;4184;42.724;23.308;2022-09-17T11:05:27;94403.94;;;21.32;65.52
8292;BME280;4184;42.724;23.308;2022-09-17T11:08:03;94397.78;;;21.39;65.43
8292;BME280;4184;42.724;23.308;2022-09-17T11:10:36;94382.34;;;21.42;65.43
8292;BME280;4184;42.724;23.308;2022-09-17T11:13:15;94412.31;;;21.41;65.60
8292;BME280;4184;42.724;23.308;2022-09-17T11:16:08;94382.47;;;21.47;66.01
8292;BME280;4184;42.724;23.308;2022-09-17T11:18:41;94417.13;;;21.44;66.11
8292;BME280;4184;42.724;23.308;2022-09-17T11:21:20;94409.25;;;21.56;66.29
8292;BME280;4184;42.724;23.308;2022-09-17T11:24:18;94411.13;;;21.67;66.04
8292;BME280;4184;42.724;23.308;2022-09-17T11:26:56;94414.69;;;21.84;65.63
8292;BME280;4184;42.724;23.308;2022-09-17T11:29:45;94411.59;;;21.87;65.64
8292;BME280;4184;42.724;23.308;2022-09-17T11:32:32;94428.19;;;21.88;65.81
8292;BME280;4184;42.724;23.308;2022-09-17T11:35:09;94422.00;;;21.94;65.76
8292;BME280;4184;42.724;23.308;2022-09-17T11:37:40;94410.22;;;21.97;65.61
8292;BME280;4184;42.724;23.308;2022-09-17T11:40:19;94412.28;;;21.95;65.81
8292;BME280;4184;42.724;23.308;2022-09-17T11:42:53;94395.81;;;21.87;66.06
8292;BME280;4184;42.724;23.308;2022-09-17T11:45:25;94387.34;;;21.85;66.18
8292;BME280;4184;42.724;23.308;2022-09-17T11:48:01;94381.28;;;21.73;66.29
8292;BME280;4184;42.724;23.308;2022-09-17T11:50:34;94371.75;;;21.60;66.77
8292;BME280;4184;42.724;23.308;2022-09-17T11:53:07;94372.53;;;21.49;67.26
8292;BME280;4184;42.724;23.308;2022-09-17T11:55:46;94379.84;;;21.47;67.44
8292;BME280;4184;42.724;23.308;2022-09-17T11:58:20;94363.28;;;21.47;67.42
8292;BME280;4184;42.724;23.308;2022-09-17T12:00:57;94359.59;;;21.48;67.34
8292;BME280;4184;42.724;23.308;2022-09-17T12:03:31;94359.59;;;21.48;66.84
8292;BME280;4184;42.724;23.308;2022-09-17T12:06:05;94360.78;;;21.52;66.63
8292;BME280;4184;42.724;23.308;2022-09-17T12:08:41;94360.31;;;21.55;66.45
8292;BME280;4184;42.724;23.308;2022-09-17T12:11:15;94362.72;;;21.56;66.29
8292;BME280;4184;42.724;23.308;2022-09-17T12:13:47;94366.72;;;21.59;65.80
8292;BME280;4184;42.724;23.308;2022-09-17T12:16:23;94354.94;;;21.61;65.90
8292;BME280;4184;42.724;23.308;2022-09-17T12:18:58;94366.59;;;21.66;65.40
8292;BME280;4184;42.724;23.308;2022-09-17T12:21:32;94365.38;;;21.68;65.24
8292;BME280;4184;42.724;23.308;2022-09-17T12:24:10;94360.13;;;21.68;65.17
8292;BME280;4184;42.724;23.308;2022-09-17T12:26:57;94349.00;;;21.66;65.22
8292;BME280;4184;42.724;23.308;2022-09-17T12:29:35;94355.28;;;21.65;65.07
8292;BME280;4184;42.724;23.308;2022-09-17T12:32:40;94345.69;;;21.59;64.94
8292;BME280;4184;42.724;23.308;2022-09-17T12:35:20;94349.47;;;21.51;64.91
8292;BME280;4184;42.724;23.308;2022-09-17T12:38:07;94343.03;;;21.47;64.98
8292;BME280;4184;42.724;23.308;2022-09-17T12:40:40;94336.41;;;21.45;65.00
8292;BME280;4184;42.724;23.308;2022-09-17T12:43:45;94344.75;;;21.42;65.01
8292;BME280;4184;42.724;23.308;2022-09-17T12:46:40;94325.19;;;21.38;64.89
8292;BME280;4184;42.724;23.308;2022-09-17T12:49:30;94323.84;;;21.35;64.91
8292;BME280;4184;42.724;23.308;2022-09-17T12:52:04;94325.66;;;21.35;64.71
8292;BME280;4184;42.724;23.308;2022-09-17T12:54:50;94322.22;;;21.34;64.78
8292;BME280;4184;42.724;23.308;2022-09-17T12:57:28;94324.63;;;21.36;64.73
8292;BME280;4184;42.724;23.308;2022-09-17T13:00:02;94326.69;;;21.34;64.86
8292;BME280;4184;42.724;23.308;2022-09-17T13:02:35;94324.50;;;21.30;64.87
8292;BME280;4184;42.724;23.308;2022-09-17T13:05:34;94306.53;;;21.27;64.99
8292;BME280;4184;42.724;23.308;2022-09-17T13:11:13;94292.13;;;21.18;65.24
8292;BME280;4184;42.724;23.308;2022-09-17T13:13:51;94297.94;;;21.20;65.23
8292;BME280;4184;42.724;23.308;2022-09-17T13:16:26;94298.50;;;21.22;65.17
8292;BME280;4184;42.724;23.308;2022-09-17T13:19:01;94305.97;;;21.25;65.10
8292;BME280;4184;42.724;23.308;2022-09-17T13:21:36;94304.16;;;21.26;65.13
8292;BME280;4184;42.724;23.308;2022-09-17T13:24:14;94302.31;;;21.26;65.09
8292;BME280;4184;42.724;23.308;2022-09-17T13:26:42;94300.13;;;21.23;64.97
8292;BME280;4184;42.724;23.308;2022-09-17T13:29:11;94299.41;;;21.16;65.40
8292;BME280;4184;42.724;23.308;2022-09-17T13:31:47;94286.81;;;21.07;66.22
8292;BME280;4184;42.724;23.308;2022-09-17T13:34:34;94279.84;;;21.00;66.89
8292;BME280;4184;42.724;23.308;2022-09-17T13:37:02;94275.41;;;21.01;66.57
8292;BME280;4184;42.724;23.308;2022-09-17T13:39:39;94274.59;;;21.00;66.60
8292;BME280;4184;42.724;23.308;2022-09-17T13:42:15;94274.22;;;20.97;66.95
8292;BME280;4184;42.724;23.308;2022-09-17T13:44:48;94266.34;;;20.97;67.03
8292;BME280;4184;42.724;23.308;2022-09-17T13:47:28;94247.94;;;20.97;66.95
8292;BME280;4184;42.724;23.308;2022-09-17T13:49:59;94239.03;;;20.98;66.97
8292;BME280;4184;42.724;23.308;2022-09-17T13:52:35;94226.72;;;20.98;66.83